createdAt,value
2018-12-23T00:00:15.828Z,1013.32
2018-12-23T00:01:15.705Z,1013.31
2018-12-23T00:02:15.688Z,1013.35
2018-12-23T00:03:15.660Z,1013.32
2018-12-23T00:04:15.648Z,1013.35
2018-12-23T00:05:15.609Z,1013.33
2018-12-23T00:06:15.585Z,1013.33
2018-12-23T00:07:15.576Z,1013.31
2018-12-23T00:08:15.539Z,1013.33
2018-12-23T00:09:15.517Z,1013.37
2018-12-23T00:10:15.504Z,1013.39
2018-12-23T00:11:15.477Z,1013.39
2018-12-23T00:12:15.450Z,1013.45
2018-12-23T00:13:15.428Z,1013.40
2018-12-23T00:14:15.405Z,1013.44
2018-12-23T00:15:15.392Z,1013.39
2018-12-23T00:16:15.363Z,1013.38
2018-12-23T00:17:15.335Z,1013.41
2018-12-23T00:18:15.313Z,1013.45
2018-12-23T00:19:15.289Z,1013.50
2018-12-23T00:20:15.267Z,1013.43
2018-12-23T00:21:15.242Z,1013.52
2018-12-23T00:22:15.229Z,1013.50
2018-12-23T00:23:15.207Z,1013.57
2018-12-23T00:24:15.172Z,1013.51
2018-12-23T00:25:15.151Z,1013.54
2018-12-23T00:26:15.125Z,1013.53
2018-12-23T00:27:15.105Z,1013.51
2018-12-23T00:28:15.078Z,1013.52
2018-12-23T00:29:15.055Z,1013.53
2018-12-23T00:30:15.040Z,1013.51
2018-12-23T00:31:15.016Z,1013.59
2018-12-23T00:32:14.989Z,1013.58
2018-12-23T00:33:14.969Z,1013.62
2018-12-23T00:34:14.943Z,1013.57
2018-12-23T00:35:20.204Z,1013.54
2018-12-23T00:36:14.896Z,1013.58
2018-12-23T00:37:14.873Z,1013.58
2018-12-23T00:38:14.852Z,1013.57
2018-12-23T00:39:14.828Z,1013.56
2018-12-23T00:40:14.815Z,1013.60
2018-12-23T00:41:14.782Z,1013.60
2018-12-23T00:42:14.756Z,1013.61
2018-12-23T00:43:14.742Z,1013.63
2018-12-23T00:44:14.712Z,1013.62
2018-12-23T00:45:14.694Z,1013.61
2018-12-23T00:46:14.676Z,1013.61
2018-12-23T00:47:14.643Z,1013.68
2018-12-23T00:48:14.620Z,1013.69
2018-12-23T00:49:14.606Z,1013.68
2018-12-23T00:50:14.576Z,1013.70
2018-12-23T00:51:14.550Z,1013.66
2018-12-23T00:52:14.526Z,1013.68
2018-12-23T00:53:14.505Z,1013.68
2018-12-23T00:54:14.495Z,1013.68
2018-12-23T00:55:14.460Z,1013.66
2018-12-23T00:56:14.441Z,1013.67
2018-12-23T00:57:14.413Z,1013.64
2018-12-23T00:58:14.394Z,1013.65
2018-12-23T00:59:14.366Z,1013.65
2018-12-23T01:00:14.344Z,1013.67
2018-12-23T01:01:14.323Z,1013.66
2018-12-23T01:02:14.300Z,1013.67
2018-12-23T01:03:14.277Z,1013.70
2018-12-23T01:04:14.250Z,1013.72
2018-12-23T01:05:14.231Z,1013.71
2018-12-23T01:06:14.204Z,1013.75
2018-12-23T01:07:14.186Z,1013.75
2018-12-23T01:08:14.168Z,1013.77
2018-12-23T01:09:14.146Z,1013.75
2018-12-23T01:10:14.129Z,1013.76
2018-12-23T01:11:14.096Z,1013.75
2018-12-23T01:12:14.073Z,1013.76
2018-12-23T01:13:14.046Z,1013.78
2018-12-23T01:14:14.024Z,1013.77
2018-12-23T01:15:14.003Z,1013.75
2018-12-23T01:16:13.981Z,1013.78
2018-12-23T01:17:13.955Z,1013.75
2018-12-23T01:18:13.932Z,1013.79
2018-12-23T01:19:13.910Z,1013.78
2018-12-23T01:20:13.886Z,1013.71
2018-12-23T01:21:13.862Z,1013.72
2018-12-23T01:22:13.848Z,1013.71
2018-12-23T01:23:13.820Z,1013.71
2018-12-23T01:24:13.794Z,1013.72
2018-12-23T01:25:13.772Z,1013.73
2018-12-23T01:26:13.749Z,1013.69
2018-12-23T01:27:13.725Z,1013.72
2018-12-23T01:28:13.701Z,1013.73
2018-12-23T01:29:13.683Z,1013.75
2018-12-23T01:30:13.658Z,1013.79
2018-12-23T01:31:13.634Z,1013.81
2018-12-23T01:32:13.610Z,1013.81
2018-12-23T01:33:13.589Z,1013.82
2018-12-23T01:34:13.574Z,1013.80
2018-12-23T01:35:13.545Z,1013.81
2018-12-23T01:36:13.520Z,1013.83
2018-12-23T01:37:13.499Z,1013.83
2018-12-23T01:38:13.475Z,1013.85
2018-12-23T01:39:13.452Z,1013.84
2018-12-23T01:40:13.428Z,1013.87
2018-12-23T01:41:13.405Z,1013.92
2018-12-23T01:42:13.389Z,1013.90
2018-12-23T01:43:13.360Z,1013.92
2018-12-23T01:44:13.338Z,1013.93
2018-12-23T01:45:13.316Z,1013.93
2018-12-23T01:46:13.290Z,1013.98
2018-12-23T01:47:13.274Z,1013.95
2018-12-23T01:48:13.245Z,1013.98
2018-12-23T01:49:13.223Z,1013.99
2018-12-23T01:50:13.200Z,1013.99
2018-12-23T01:51:13.178Z,1013.99
2018-12-23T01:52:13.155Z,1013.96
2018-12-23T01:53:13.134Z,1013.96
2018-12-23T01:54:13.114Z,1013.99
2018-12-23T01:55:13.087Z,1014.00
2018-12-23T01:56:13.063Z,1013.99
2018-12-23T01:57:13.042Z,1014.03
2018-12-23T01:58:13.016Z,1014.02
2018-12-23T01:59:12.997Z,1014.02
2018-12-23T02:00:12.974Z,1014.03
2018-12-23T02:01:12.951Z,1014.02
2018-12-23T02:02:12.948Z,1013.98
2018-12-23T02:03:12.909Z,1014.04
2018-12-23T02:04:12.880Z,1014.01
2018-12-23T02:05:12.857Z,1014.07
2018-12-23T02:06:13.444Z,1014.04
2018-12-23T02:07:12.812Z,1014.01
2018-12-23T02:08:12.789Z,1014.00
2018-12-23T02:09:12.764Z,1014.05
2018-12-23T02:10:12.746Z,1014.06
2018-12-23T02:11:12.726Z,1014.07
2018-12-23T02:12:12.696Z,1014.07
2018-12-23T02:13:12.677Z,1014.17
2018-12-23T02:14:12.654Z,1014.19
2018-12-23T02:15:12.629Z,1014.17
2018-12-23T02:16:12.608Z,1014.19
2018-12-23T02:17:12.583Z,1014.19
2018-12-23T02:18:12.566Z,1014.15
2018-12-23T02:19:12.537Z,1014.17
2018-12-23T02:20:12.513Z,1014.15
2018-12-23T02:21:12.492Z,1014.18
2018-12-23T02:22:12.474Z,1014.13
2018-12-23T02:23:12.448Z,1014.15
2018-12-23T02:24:12.424Z,1014.09
2018-12-23T02:25:12.406Z,1014.11
2018-12-23T02:26:12.376Z,1014.13
2018-12-23T02:27:12.360Z,1014.17
2018-12-23T02:28:12.332Z,1014.12
2018-12-23T02:29:12.307Z,1014.10
2018-12-23T02:30:12.286Z,1014.13
2018-12-23T02:31:12.265Z,1014.09
2018-12-23T02:32:12.240Z,1014.08
2018-12-23T02:33:12.217Z,1014.08
2018-12-23T02:34:12.195Z,1014.10
2018-12-23T02:35:12.173Z,1014.13
2018-12-23T02:36:12.149Z,1014.10
2018-12-23T02:37:12.124Z,1014.14
2018-12-23T02:38:12.107Z,1014.15
2018-12-23T02:39:12.096Z,1014.15
2018-12-23T02:40:12.061Z,1014.22
2018-12-23T02:41:12.036Z,1014.17
2018-12-23T02:42:12.016Z,1014.17
2018-12-23T02:43:11.993Z,1014.18
2018-12-23T02:44:11.969Z,1014.18
2018-12-23T02:45:11.942Z,1014.21
2018-12-23T02:46:11.921Z,1014.18
2018-12-23T02:47:11.898Z,1014.17
2018-12-23T02:48:11.876Z,1014.17
2018-12-23T02:49:11.850Z,1014.19
2018-12-23T02:50:11.831Z,1014.17
2018-12-23T02:51:11.808Z,1014.19
2018-12-23T02:52:11.783Z,1014.16
2018-12-23T02:53:11.759Z,1014.23
2018-12-23T02:54:11.737Z,1014.18
2018-12-23T02:55:11.724Z,1014.20
2018-12-23T02:56:11.700Z,1014.25
2018-12-23T02:57:11.679Z,1014.25
2018-12-23T02:58:11.646Z,1014.25
2018-12-23T02:59:11.625Z,1014.30
2018-12-23T03:00:11.602Z,1014.27
2018-12-23T03:01:11.576Z,1014.30
2018-12-23T03:02:11.554Z,1014.25
2018-12-23T03:03:11.532Z,1014.22
2018-12-23T03:04:11.507Z,1014.22
2018-12-23T03:05:11.484Z,1014.21
2018-12-23T03:06:11.467Z,1014.24
2018-12-23T03:07:11.439Z,1014.24
2018-12-23T03:08:11.418Z,1014.31
2018-12-23T03:09:11.400Z,1014.32
2018-12-23T03:10:11.371Z,1014.28
2018-12-23T03:11:11.355Z,1014.26
2018-12-23T03:12:11.329Z,1014.26
2018-12-23T03:13:11.304Z,1014.23
2018-12-23T03:14:11.280Z,1014.28
2018-12-23T03:15:11.264Z,1014.23
2018-12-23T03:16:11.235Z,1014.25
2018-12-23T03:17:11.212Z,1014.21
2018-12-23T03:18:11.193Z,1014.16
2018-12-23T03:19:11.166Z,1014.16
2018-12-23T03:20:11.143Z,1014.12
2018-12-23T03:21:11.120Z,1014.15
2018-12-23T03:22:11.098Z,1014.15
2018-12-23T03:23:11.085Z,1014.16
2018-12-23T03:24:11.077Z,1014.15
2018-12-23T03:25:11.030Z,1014.14
2018-12-23T03:26:11.005Z,1014.09
2018-12-23T03:27:10.985Z,1014.07
2018-12-23T03:28:10.960Z,1014.10
2018-12-23T03:29:10.936Z,1014.10
2018-12-23T03:30:10.916Z,1014.15
2018-12-23T03:31:10.894Z,1014.12
2018-12-23T03:32:10.883Z,1014.15
2018-12-23T03:33:10.859Z,1014.10
2018-12-23T03:34:10.823Z,1014.07
2018-12-23T03:35:10.803Z,1014.08
2018-12-23T03:36:15.252Z,1014.06
2018-12-23T03:37:10.761Z,1014.05
2018-12-23T03:38:10.733Z,1014.04
2018-12-23T03:39:10.712Z,1014.02
2018-12-23T03:40:10.688Z,1014.02
2018-12-23T03:41:10.664Z,1013.99
2018-12-23T03:42:10.650Z,1014.00
2018-12-23T03:43:10.619Z,1014.06
2018-12-23T03:44:10.598Z,1014.09
2018-12-23T03:45:10.571Z,1014.15
2018-12-23T03:46:10.551Z,1014.12
2018-12-23T03:47:10.527Z,1014.12
2018-12-23T03:48:10.514Z,1014.14
2018-12-23T03:49:10.488Z,1014.12
2018-12-23T03:50:10.471Z,1014.15
2018-12-23T03:51:10.438Z,1014.15
2018-12-23T03:52:10.411Z,1014.16
2018-12-23T03:53:10.392Z,1014.17
2018-12-23T03:54:10.383Z,1014.15
2018-12-23T03:55:10.358Z,1014.18
2018-12-23T03:56:10.326Z,1014.21
2018-12-23T03:57:10.299Z,1014.24
2018-12-23T03:58:10.274Z,1014.24
2018-12-23T03:59:10.251Z,1014.24
2018-12-23T04:00:10.228Z,1014.22
2018-12-23T04:01:10.206Z,1014.16
2018-12-23T04:02:10.183Z,1014.13
2018-12-23T04:03:10.162Z,1014.17
2018-12-23T04:04:10.138Z,1014.08
2018-12-23T04:05:10.124Z,1014.12
2018-12-23T04:06:10.105Z,1014.08
2018-12-23T04:07:10.076Z,1014.05
2018-12-23T04:08:10.047Z,1014.02
2018-12-23T04:09:10.028Z,1014.04
2018-12-23T04:10:10.010Z,1014.00
2018-12-23T04:11:09.978Z,1014.08
2018-12-23T04:12:09.954Z,1014.05
2018-12-23T04:13:09.933Z,1013.99
2018-12-23T04:14:09.910Z,1013.99
2018-12-23T04:15:09.887Z,1014.02
2018-12-23T04:16:09.866Z,1014.01
2018-12-23T04:17:09.845Z,1014.00
2018-12-23T04:18:09.816Z,1014.01
2018-12-23T04:19:09.792Z,1013.93
2018-12-23T04:20:09.772Z,1013.98
2018-12-23T04:21:09.752Z,1013.92
2018-12-23T04:22:09.727Z,1013.91
2018-12-23T04:23:09.706Z,1013.90
2018-12-23T04:24:09.677Z,1013.89
2018-12-23T04:25:09.659Z,1013.88
2018-12-23T04:26:09.638Z,1013.89
2018-12-23T04:27:09.619Z,1013.89
2018-12-23T04:28:09.590Z,1013.86
2018-12-23T04:29:09.564Z,1013.84
2018-12-23T04:30:09.545Z,1013.83
2018-12-23T04:31:09.517Z,1013.83
2018-12-23T04:32:09.493Z,1013.78
2018-12-23T04:33:09.472Z,1013.80
2018-12-23T04:34:09.450Z,1013.76
2018-12-23T04:35:09.559Z,1013.78
2018-12-23T04:36:09.406Z,1013.75
2018-12-23T04:37:09.381Z,1013.77
2018-12-23T04:38:09.357Z,1013.73
2018-12-23T04:39:09.333Z,1013.76
2018-12-23T04:40:09.312Z,1013.74
2018-12-23T04:41:09.290Z,1013.77
2018-12-23T04:42:09.271Z,1013.76
2018-12-23T04:43:09.242Z,1013.76
2018-12-23T04:44:09.219Z,1013.75
2018-12-23T04:45:09.211Z,1013.76
2018-12-23T04:46:09.176Z,1013.75
2018-12-23T04:47:09.152Z,1013.76
2018-12-23T04:48:09.127Z,1013.72
2018-12-23T04:49:09.136Z,1013.74
2018-12-23T04:50:09.081Z,1013.72
2018-12-23T04:51:09.064Z,1013.71
2018-12-23T04:52:09.042Z,1013.72
2018-12-23T04:53:09.014Z,1013.74
2018-12-23T04:54:08.989Z,1013.72
2018-12-23T04:55:08.969Z,1013.76
2018-12-23T04:56:08.943Z,1013.74
2018-12-23T04:57:08.923Z,1013.71
2018-12-23T04:58:08.899Z,1013.75
2018-12-23T04:59:08.876Z,1013.75
2018-12-23T05:00:08.853Z,1013.74
2018-12-23T05:01:08.831Z,1013.78
2018-12-23T05:02:08.807Z,1013.81
2018-12-23T05:03:08.784Z,1013.76
2018-12-23T05:04:08.765Z,1013.78
2018-12-23T05:05:08.739Z,1013.74
2018-12-23T05:06:08.725Z,1013.73
2018-12-23T05:07:08.703Z,1013.67
2018-12-23T05:08:08.670Z,1013.64
2018-12-23T05:09:08.646Z,1013.66
2018-12-23T05:10:08.632Z,1013.69
2018-12-23T05:11:08.602Z,1013.68
2018-12-23T05:12:08.601Z,1013.67
2018-12-23T05:13:08.556Z,1013.65
2018-12-23T05:14:08.536Z,1013.64
2018-12-23T05:15:08.511Z,1013.64
2018-12-23T05:16:08.488Z,1013.62
2018-12-23T05:17:08.465Z,1013.64
2018-12-23T05:18:08.442Z,1013.62
2018-12-23T05:19:08.420Z,1013.63
2018-12-23T05:20:08.400Z,1013.64
2018-12-23T05:21:08.381Z,1013.62
2018-12-23T05:22:08.356Z,1013.66
2018-12-23T05:23:08.331Z,1013.63
2018-12-23T05:24:08.307Z,1013.61
2018-12-23T05:25:08.281Z,1013.61
2018-12-23T05:26:08.262Z,1013.59
2018-12-23T05:27:08.236Z,1013.59
2018-12-23T05:28:08.220Z,1013.53
2018-12-23T05:29:08.192Z,1013.51
2018-12-23T05:30:08.174Z,1013.53
2018-12-23T05:31:08.147Z,1013.56
2018-12-23T05:32:08.121Z,1013.56
2018-12-23T05:33:08.100Z,1013.59
2018-12-23T05:34:08.077Z,1013.59
2018-12-23T05:35:08.060Z,1013.63
2018-12-23T05:36:08.038Z,1013.62
2018-12-23T05:37:08.007Z,1013.60
2018-12-23T05:38:07.983Z,1013.65
2018-12-23T05:39:07.963Z,1013.62
2018-12-23T05:40:07.949Z,1013.60
2018-12-23T05:41:07.915Z,1013.63
2018-12-23T05:42:07.902Z,1013.64
2018-12-23T05:43:07.868Z,1013.67
2018-12-23T05:44:07.848Z,1013.68
2018-12-23T05:45:07.825Z,1013.66
2018-12-23T05:46:07.804Z,1013.68
2018-12-23T05:47:07.784Z,1013.70
2018-12-23T05:48:07.755Z,1013.71
2018-12-23T05:49:07.731Z,1013.72
2018-12-23T05:50:07.709Z,1013.65
2018-12-23T05:51:07.685Z,1013.70
2018-12-23T05:52:07.671Z,1013.69
2018-12-23T05:53:07.642Z,1013.70
2018-12-23T05:54:07.625Z,1013.71
2018-12-23T05:55:07.598Z,1013.71
2018-12-23T05:56:07.570Z,1013.74
2018-12-23T05:57:07.546Z,1013.76
2018-12-23T05:58:07.523Z,1013.75
2018-12-23T05:59:07.501Z,1013.76
2018-12-23T06:00:07.480Z,1013.78
2018-12-23T06:01:07.453Z,1013.79
2018-12-23T06:02:07.444Z,1013.78
2018-12-23T06:03:07.410Z,1013.72
2018-12-23T06:04:07.385Z,1013.76
2018-12-23T06:05:07.362Z,1013.72
2018-12-23T06:06:07.341Z,1013.71
2018-12-23T06:07:07.315Z,1013.74
2018-12-23T06:08:07.295Z,1013.73
2018-12-23T06:09:07.273Z,1013.77
2018-12-23T06:10:07.261Z,1013.75
2018-12-23T06:11:07.225Z,1013.78
2018-12-23T06:12:07.206Z,1013.79
2018-12-23T06:13:07.179Z,1013.79
2018-12-23T06:14:07.163Z,1013.80
2018-12-23T06:15:07.133Z,1013.81
2018-12-23T06:16:07.111Z,1013.80
2018-12-23T06:17:07.087Z,1013.82
2018-12-23T06:18:07.064Z,1013.85
2018-12-23T06:19:07.044Z,1013.89
2018-12-23T06:20:07.026Z,1013.86
2018-12-23T06:21:07.001Z,1013.87
2018-12-23T06:22:06.981Z,1013.87
2018-12-23T06:23:07.065Z,1013.86
2018-12-23T06:24:06.925Z,1013.88
2018-12-23T06:25:06.904Z,1013.91
2018-12-23T06:26:06.889Z,1013.89
2018-12-23T06:27:06.856Z,1013.85
2018-12-23T06:28:06.834Z,1013.82
2018-12-23T06:29:06.826Z,1013.84
2018-12-23T06:30:06.789Z,1013.82
2018-12-23T06:31:06.765Z,1013.88
2018-12-23T06:32:06.742Z,1013.86
2018-12-23T06:33:06.722Z,1013.82
2018-12-23T06:34:06.701Z,1013.80
2018-12-23T06:35:06.672Z,1013.81
2018-12-23T06:36:06.658Z,1013.79
2018-12-23T06:37:10.368Z,1013.81
2018-12-23T06:38:06.607Z,1013.83
2018-12-23T06:39:06.580Z,1013.84
2018-12-23T06:40:06.557Z,1013.85
2018-12-23T06:41:06.539Z,1013.85
2018-12-23T06:42:06.511Z,1013.84
2018-12-23T06:43:06.490Z,1013.84
2018-12-23T06:44:06.479Z,1013.89
2018-12-23T06:45:06.443Z,1013.92
2018-12-23T06:46:06.420Z,1013.86
2018-12-23T06:47:06.398Z,1013.89
2018-12-23T06:48:06.380Z,1013.84
2018-12-23T06:49:06.353Z,1013.87
2018-12-23T06:50:06.334Z,1013.89
2018-12-23T06:51:06.306Z,1013.86
2018-12-23T06:52:06.284Z,1013.89
2018-12-23T06:53:06.258Z,1013.90
2018-12-23T06:54:06.253Z,1013.92
2018-12-23T06:55:06.222Z,1013.88
2018-12-23T06:56:06.191Z,1013.90
2018-12-23T06:57:06.167Z,1013.90
2018-12-23T06:58:06.149Z,1013.91
2018-12-23T06:59:06.122Z,1013.88
2018-12-23T07:00:06.099Z,1013.90
2018-12-23T07:01:06.075Z,1013.94
2018-12-23T07:02:06.055Z,1013.93
2018-12-23T07:03:06.029Z,1013.97
2018-12-23T07:04:06.006Z,1013.99
2018-12-23T07:05:05.991Z,1013.95
2018-12-23T07:06:05.963Z,1013.97
2018-12-23T07:07:05.941Z,1013.95
2018-12-23T07:08:05.923Z,1014.01
2018-12-23T07:09:05.895Z,1013.98
2018-12-23T07:10:05.871Z,1013.96
2018-12-23T07:11:05.851Z,1013.95
2018-12-23T07:12:05.825Z,1013.94
2018-12-23T07:13:05.802Z,1013.92
2018-12-23T07:14:05.784Z,1013.90
2018-12-23T07:15:05.764Z,1013.94
2018-12-23T07:16:05.743Z,1013.92
2018-12-23T07:17:05.713Z,1013.87
2018-12-23T07:18:05.694Z,1013.94
2018-12-23T07:19:05.671Z,1013.89
2018-12-23T07:20:05.646Z,1013.93
2018-12-23T07:21:05.623Z,1013.94
2018-12-23T07:22:05.612Z,1013.90
2018-12-23T07:23:05.576Z,1013.91
2018-12-23T07:24:05.550Z,1013.87
2018-12-23T07:25:05.533Z,1013.89
2018-12-23T07:26:05.503Z,1013.90
2018-12-23T07:27:05.483Z,1013.91
2018-12-23T07:28:05.462Z,1013.89
2018-12-23T07:29:05.436Z,1013.92
2018-12-23T07:30:05.416Z,1013.92
2018-12-23T07:31:05.400Z,1013.90
2018-12-23T07:32:05.368Z,1013.93
2018-12-23T07:33:05.347Z,1013.88
2018-12-23T07:34:05.327Z,1013.90
2018-12-23T07:35:05.299Z,1013.91
2018-12-23T07:36:05.279Z,1013.92
2018-12-23T07:37:05.254Z,1013.89
2018-12-23T07:38:05.278Z,1013.87
2018-12-23T07:39:05.209Z,1013.91
2018-12-23T07:40:05.183Z,1013.89
2018-12-23T07:41:05.162Z,1013.91
2018-12-23T07:42:05.146Z,1013.94
2018-12-23T07:43:05.118Z,1013.93
2018-12-23T07:44:05.095Z,1013.96
2018-12-23T07:45:05.070Z,1013.99
2018-12-23T07:46:05.047Z,1013.96
2018-12-23T07:47:05.024Z,1013.96
2018-12-23T07:48:05.003Z,1013.93
2018-12-23T07:49:04.981Z,1013.92
2018-12-23T07:50:04.956Z,1013.93
2018-12-23T07:51:04.933Z,1013.90
2018-12-23T07:52:04.919Z,1013.91
2018-12-23T07:53:04.887Z,1013.92
2018-12-23T07:54:04.867Z,1013.91
2018-12-23T07:55:04.841Z,1013.92
2018-12-23T07:56:04.820Z,1013.86
2018-12-23T07:57:04.798Z,1013.85
2018-12-23T07:58:04.781Z,1013.83
2018-12-23T07:59:04.752Z,1013.79
2018-12-23T08:00:04.727Z,1013.83
2018-12-23T08:01:04.703Z,1013.84
2018-12-23T08:02:04.690Z,1013.83
2018-12-23T08:03:04.661Z,1013.85
2018-12-23T08:04:04.637Z,1013.88
2018-12-23T08:05:04.613Z,1013.89
2018-12-23T08:06:04.591Z,1013.86
2018-12-23T08:07:04.567Z,1013.87
2018-12-23T08:08:04.545Z,1013.86
2018-12-23T08:09:04.530Z,1013.84
2018-12-23T08:10:04.503Z,1013.87
2018-12-23T08:11:04.479Z,1013.85
2018-12-23T08:12:04.454Z,1013.88
2018-12-23T08:13:04.432Z,1013.88
2018-12-23T08:14:04.407Z,1013.87
2018-12-23T08:15:04.387Z,1013.86
2018-12-23T08:16:04.362Z,1013.88
2018-12-23T08:17:04.339Z,1013.88
2018-12-23T08:18:05.869Z,1013.84
2018-12-23T08:19:04.294Z,1013.83
2018-12-23T08:20:04.271Z,1013.80
2018-12-23T08:21:04.249Z,1013.79
2018-12-23T08:22:04.225Z,1013.79
2018-12-23T08:23:04.208Z,1013.75
2018-12-23T08:24:04.178Z,1013.78
2018-12-23T08:25:04.161Z,1013.77
2018-12-23T08:26:04.137Z,1013.72
2018-12-23T08:27:04.110Z,1013.71
2018-12-23T08:28:04.096Z,1013.70
2018-12-23T08:29:04.065Z,1013.73
2018-12-23T08:30:04.043Z,1013.68
2018-12-23T08:31:04.027Z,1013.65
2018-12-23T08:32:03.995Z,1013.70
2018-12-23T08:33:03.980Z,1013.69
2018-12-23T08:34:03.951Z,1013.71
2018-12-23T08:35:03.927Z,1013.72
2018-12-23T08:36:03.904Z,1013.76
2018-12-23T08:37:03.890Z,1013.76
2018-12-23T08:38:03.865Z,1013.75
2018-12-23T08:39:03.837Z,1013.79
2018-12-23T08:40:03.812Z,1013.76
2018-12-23T08:41:03.789Z,1013.75
2018-12-23T08:42:03.766Z,1013.79
2018-12-23T08:43:03.745Z,1013.78
2018-12-23T08:44:03.727Z,1013.74
2018-12-23T08:45:03.700Z,1013.70
2018-12-23T08:46:03.675Z,1013.73
2018-12-23T08:47:03.653Z,1013.71
2018-12-23T08:48:03.632Z,1013.72
2018-12-23T08:49:03.607Z,1013.73
2018-12-23T08:50:03.586Z,1013.75
2018-12-23T08:51:03.563Z,1013.73
2018-12-23T08:52:03.541Z,1013.74
2018-12-23T08:53:03.520Z,1013.72
2018-12-23T08:54:03.497Z,1013.73
2018-12-23T08:55:03.473Z,1013.75
2018-12-23T08:56:03.448Z,1013.76
2018-12-23T08:57:03.449Z,1013.74
2018-12-23T08:58:03.414Z,1013.70
2018-12-23T08:59:03.386Z,1013.68
2018-12-23T09:00:03.364Z,1013.67
2018-12-23T09:01:03.337Z,1013.61
2018-12-23T09:02:03.313Z,1013.63
2018-12-23T09:03:06.039Z,1013.64
2018-12-23T09:04:03.270Z,1013.61
2018-12-23T09:05:03.243Z,1013.64
2018-12-23T09:06:03.222Z,1013.67
2018-12-23T09:07:03.202Z,1013.70
2018-12-23T09:08:03.175Z,1013.67
2018-12-23T09:09:03.172Z,1013.71
2018-12-23T09:10:03.140Z,1013.72
2018-12-23T09:11:03.119Z,1013.74
2018-12-23T09:12:03.086Z,1013.76
2018-12-23T09:13:03.058Z,1013.78
2018-12-23T09:14:03.036Z,1013.78
2018-12-23T09:15:03.022Z,1013.83
2018-12-23T09:16:02.990Z,1013.75
2018-12-23T09:17:02.978Z,1013.78
2018-12-23T09:18:02.950Z,1013.80
2018-12-23T09:19:02.925Z,1013.85
2018-12-23T09:20:02.913Z,1013.86
2018-12-23T09:21:02.878Z,1013.84
2018-12-23T09:22:02.878Z,1013.84
2018-12-23T09:23:02.835Z,1013.86
2018-12-23T09:24:02.818Z,1013.83
2018-12-23T09:25:02.787Z,1013.81
2018-12-23T09:26:02.762Z,1013.83
2018-12-23T09:27:02.742Z,1013.79
2018-12-23T09:28:02.719Z,1013.79
2018-12-23T09:29:02.696Z,1013.75
2018-12-23T09:30:02.672Z,1013.78
2018-12-23T09:31:02.650Z,1013.73
2018-12-23T09:32:02.627Z,1013.76
2018-12-23T09:33:02.604Z,1013.70
2018-12-23T09:34:02.585Z,1013.68
2018-12-23T09:35:02.564Z,1013.70
2018-12-23T09:36:02.544Z,1013.68
2018-12-23T09:37:02.519Z,1013.68
2018-12-23T09:38:02.502Z,1013.66
2018-12-23T09:39:02.477Z,1013.65
2018-12-23T09:40:02.442Z,1013.66
2018-12-23T09:41:02.422Z,1013.63
2018-12-23T09:42:02.399Z,1013.61
2018-12-23T09:43:02.377Z,1013.57
2018-12-23T09:44:02.352Z,1013.57
2018-12-23T09:45:02.330Z,1013.58
2018-12-23T09:46:02.308Z,1013.53
2018-12-23T09:47:02.285Z,1013.53
2018-12-23T09:48:02.269Z,1013.52
2018-12-23T09:49:02.239Z,1013.52
2018-12-23T09:50:02.226Z,1013.49
2018-12-23T09:51:02.204Z,1013.52
2018-12-23T09:52:02.180Z,1013.50
2018-12-23T09:53:02.148Z,1013.52
2018-12-23T09:54:02.125Z,1013.49
2018-12-23T09:55:02.112Z,1013.50
2018-12-23T09:56:02.083Z,1013.49
2018-12-23T09:57:02.057Z,1013.43
2018-12-23T09:58:02.035Z,1013.46
2018-12-23T09:59:02.013Z,1013.49
2018-12-23T10:00:01.989Z,1013.46
2018-12-23T10:01:01.975Z,1013.45
2018-12-23T10:02:01.953Z,1013.47
2018-12-23T10:03:01.932Z,1013.43
2018-12-23T10:04:01.904Z,1013.41
2018-12-23T10:05:01.876Z,1013.42
2018-12-23T10:06:01.853Z,1013.36
2018-12-23T10:07:01.830Z,1013.31
2018-12-23T10:08:09.770Z,1013.35
2018-12-23T10:09:01.786Z,1013.35
2018-12-23T10:10:01.765Z,1013.33
2018-12-23T10:11:01.740Z,1013.29
2018-12-23T10:12:01.724Z,1013.30
2018-12-23T10:13:01.707Z,1013.23
2018-12-23T10:14:01.675Z,1013.24
2018-12-23T10:15:01.652Z,1013.25
2018-12-23T10:16:01.629Z,1013.22
2018-12-23T10:17:01.602Z,1013.24
2018-12-23T10:18:01.587Z,1013.24
2018-12-23T10:19:01.562Z,1013.26
2018-12-23T10:20:01.541Z,1013.25
2018-12-23T10:21:01.516Z,1013.27
2018-12-23T10:22:01.493Z,1013.27
2018-12-23T10:23:01.483Z,1013.28
2018-12-23T10:24:01.451Z,1013.30
2018-12-23T10:25:01.431Z,1013.31
2018-12-23T10:26:01.406Z,1013.30
2018-12-23T10:27:01.378Z,1013.27
2018-12-23T10:28:01.358Z,1013.31
2018-12-23T10:29:01.339Z,1013.27
2018-12-23T10:30:01.324Z,1013.24
2018-12-23T10:31:01.290Z,1013.28
2018-12-23T10:32:01.273Z,1013.24
2018-12-23T10:33:01.244Z,1013.20
2018-12-23T10:34:01.226Z,1013.18
2018-12-23T10:35:01.222Z,1013.13
2018-12-23T10:36:01.178Z,1013.10
2018-12-23T10:37:01.153Z,1013.09
2018-12-23T10:38:01.134Z,1013.09
2018-12-23T10:39:01.117Z,1013.09
2018-12-23T10:40:01.089Z,1013.11
2018-12-23T10:41:01.070Z,1013.09
2018-12-23T10:42:01.054Z,1013.07
2018-12-23T10:43:01.388Z,1013.00
2018-12-23T10:44:00.999Z,1012.98
2018-12-23T10:45:00.994Z,1013.03
2018-12-23T10:46:00.953Z,1012.97
2018-12-23T10:47:00.930Z,1012.98
2018-12-23T10:48:00.914Z,1012.98
2018-12-23T10:49:00.888Z,1012.94
2018-12-23T10:50:00.863Z,1012.97
2018-12-23T10:51:00.840Z,1012.89
2018-12-23T10:52:00.821Z,1012.90
2018-12-23T10:53:00.795Z,1012.90
2018-12-23T10:54:00.782Z,1012.83
2018-12-23T10:55:00.753Z,1012.83
2018-12-23T10:56:00.732Z,1012.83
2018-12-23T10:57:00.710Z,1012.84
2018-12-23T10:58:00.684Z,1012.78
2018-12-23T10:59:00.660Z,1012.78
2018-12-23T11:00:00.635Z,1012.73
2018-12-23T11:01:00.620Z,1012.73
2018-12-23T11:02:00.595Z,1012.70
2018-12-23T11:03:00.566Z,1012.65
2018-12-23T11:04:00.546Z,1012.63
2018-12-23T11:05:00.526Z,1012.61
2018-12-23T11:06:00.501Z,1012.60
2018-12-23T11:07:00.484Z,1012.55
2018-12-23T11:08:00.469Z,1012.51
2018-12-23T11:09:00.434Z,1012.49
2018-12-23T11:10:02.237Z,1012.41
2018-12-23T11:11:00.387Z,1012.42
2018-12-23T11:12:00.372Z,1012.40
2018-12-23T11:13:00.345Z,1012.40
2018-12-23T11:14:00.320Z,1012.37
2018-12-23T11:15:00.353Z,1012.34
2018-12-23T11:16:00.276Z,1012.33
2018-12-23T11:17:00.253Z,1012.38
2018-12-23T11:18:00.247Z,1012.36
2018-12-23T11:19:00.208Z,1012.28
2018-12-23T11:20:00.184Z,1012.24
2018-12-23T11:21:00.163Z,1012.26
2018-12-23T11:22:00.139Z,1012.24
2018-12-23T11:23:00.123Z,1012.28
2018-12-23T11:24:00.094Z,1012.26
2018-12-23T11:25:00.144Z,1012.26
2018-12-23T11:26:00.051Z,1012.23
2018-12-23T11:27:00.035Z,1012.22
2018-12-23T11:28:00.004Z,1012.21
2018-12-23T11:28:59.981Z,1012.21
2018-12-23T11:29:59.965Z,1012.20
2018-12-23T11:30:59.946Z,1012.17
2018-12-23T11:31:59.931Z,1012.17
2018-12-23T11:32:59.900Z,1012.17
2018-12-23T11:33:59.872Z,1012.16
2018-12-23T11:34:59.846Z,1012.12
2018-12-23T11:35:59.836Z,1012.06
2018-12-23T11:36:59.815Z,1012.09
2018-12-23T11:37:59.791Z,1012.15
2018-12-23T11:38:59.764Z,1012.11
2018-12-23T11:39:59.751Z,1012.06
2018-12-23T11:40:59.726Z,1012.03
2018-12-23T11:41:59.700Z,1011.99
2018-12-23T11:42:59.671Z,1012.00
2018-12-23T11:43:59.646Z,1011.99
2018-12-23T11:44:59.622Z,1011.97
2018-12-23T11:45:59.605Z,1011.99
2018-12-23T11:46:59.584Z,1011.98
2018-12-23T11:47:59.565Z,1011.94
2018-12-23T11:48:59.532Z,1011.92
2018-12-23T11:49:59.522Z,1011.86
2018-12-23T11:50:59.506Z,1011.87
2018-12-23T11:51:59.472Z,1011.82
2018-12-23T11:52:59.445Z,1011.84
2018-12-23T11:53:59.422Z,1011.84
2018-12-23T11:54:59.398Z,1011.79
2018-12-23T11:55:59.376Z,1011.79
2018-12-23T11:56:59.354Z,1011.75
2018-12-23T11:57:59.331Z,1011.71
2018-12-23T11:58:59.316Z,1011.70
2018-12-23T11:59:59.286Z,1011.65
2018-12-23T12:00:59.263Z,1011.58
2018-12-23T12:01:59.239Z,1011.59
2018-12-23T12:02:59.230Z,1011.53
2018-12-23T12:03:59.195Z,1011.51
2018-12-23T12:04:59.173Z,1011.52